map of WAP home
WAP - Airport
Location
City:  Alto Palena, Los Lagos, Chile
ICAO:SCAP
IATA:WAP

Details
Type:Airport (Aerodrome, Airfield)
Use:Public/Civil
Latitude:4336'55"S (-43.615277)
Longitude:7148'25"W (-71.806943)
Elevation:984 ft (300 m)
Variation:8.50E (WMM2015v2 magnetic declination)
-0.12 annual change
Runways:1
Longest:2874 × 59 ft (876 × 18 m), paved

Weather
METAR:SCAP 041400Z 06012KT 020V090 CAVOK 29/07 Q1019

Related Locations
Nearby:
Farthest:ZMKB: 12363 mi / 19896 km
Khanbogd [Khanbumbat Airport (Oyu Tolgoi Airport, Oyut Airport)], 053, MN

Find:

   beyond  
but within

Other Information
Maps:
NOTAMs:
Links:
Sources:

  
  • flag of Chile
  • flag of Los Lagos
  

Sectional Chart

Flight Planning
at skyvector.com

Satellite Image

Google Maps Satellite view

 

Copyright © 2004-2019 Karl L. Swartz. All rights reserved.
The Great Circle Mapper name and logo are trademarks of the Great Circle Mapper.
All other trademarks mentioned herein belong to their respective owners.
Please see credits for attibutions and further copyright information.

  Follow gcmap on Facebook Follow gcmap on Twitter GCmap on LinkedIn

hCard Microformat

Geo Microformat